createdAt,value
2023-03-06T00:00:14.204Z,74.7236328125
2023-03-06T00:01:14.503Z,74.873046875
2023-03-06T00:02:14.304Z,74.984375
2023-03-06T00:03:14.512Z,74.9609375
2023-03-06T00:04:14.258Z,75.0458984375
2023-03-06T00:05:14.261Z,74.8701171875
2023-03-06T00:06:14.393Z,75.0458984375
2023-03-06T00:07:16.618Z,74.994140625
2023-03-06T00:08:14.533Z,74.9755859375
2023-03-06T00:09:14.272Z,74.6787109375
2023-03-06T00:10:15.254Z,74.830078125
2023-03-06T00:11:14.212Z,74.9072265625
2023-03-06T00:12:14.204Z,74.9423828125
2023-03-06T00:13:14.523Z,74.8330078125
2023-03-06T00:14:14.266Z,74.8505859375
2023-03-06T00:15:14.172Z,74.9443359375
2023-03-06T00:16:14.554Z,75.033203125
2023-03-06T00:17:14.240Z,75.26953125
2023-03-06T00:18:18.935Z,75.423828125
2023-03-06T00:19:14.179Z,75.45703125
2023-03-06T00:20:14.296Z,75.4384765625
2023-03-06T00:21:14.307Z,75.3232421875
2023-03-06T00:22:14.249Z,75.2236328125
2023-03-06T00:23:14.233Z,75.1298828125
2023-03-06T00:24:14.509Z,75.001953125
2023-03-06T00:25:14.154Z,74.9970703125
2023-03-06T00:26:14.274Z,75.091796875
2023-03-06T00:27:14.173Z,75.18359375
2023-03-06T00:28:14.228Z,75.390625
2023-03-06T00:29:16.530Z,75.23046875
2023-03-06T00:30:14.259Z,75.3515625
2023-03-06T00:31:14.692Z,75.326171875
2023-03-06T00:32:14.327Z,75.1298828125
2023-03-06T00:33:14.154Z,75.240234375
2023-03-06T00:34:14.509Z,75.220703125
2023-03-06T00:35:14.222Z,75.0947265625
2023-03-06T00:36:14.215Z,74.9189453125
2023-03-06T00:37:14.282Z,74.8994140625
2023-03-06T00:38:14.251Z,74.783203125
2023-03-06T00:39:14.602Z,74.8759765625
2023-03-06T00:40:19.924Z,74.89453125
2023-03-06T00:41:14.128Z,75.0087890625
2023-03-06T00:42:14.262Z,75.2275390625
2023-03-06T00:43:14.147Z,75.0966796875
2023-03-06T00:44:14.505Z,75.107421875
2023-03-06T00:45:14.146Z,75.10546875
2023-03-06T00:46:14.503Z,75.091796875
2023-03-06T00:47:14.263Z,75.240234375
2023-03-06T00:48:14.272Z,75.357421875
2023-03-06T00:49:14.537Z,75.5673828125
2023-03-06T00:50:14.253Z,75.40625
2023-03-06T00:51:16.473Z,75.4228515625
2023-03-06T00:52:14.250Z,75.390625
2023-03-06T00:53:14.135Z,75.1875
2023-03-06T00:54:14.500Z,75.0947265625
2023-03-06T00:55:14.183Z,74.9990234375
2023-03-06T00:56:14.155Z,74.9423828125
2023-03-06T00:57:14.263Z,74.8251953125
2023-03-06T00:58:14.257Z,75.134765625
2023-03-06T00:59:14.505Z,75.4033203125
2023-03-06T01:00:14.163Z,75.5009765625
2023-03-06T01:01:14.247Z,75.5234375
2023-03-06T01:02:19.079Z,75.3720703125
2023-03-06T01:03:14.146Z,75.564453125
2023-03-06T01:04:14.213Z,75.6318359375
2023-03-06T01:05:14.496Z,75.60546875
2023-03-06T01:06:14.252Z,75.3828125
2023-03-06T01:07:14.261Z,75.2119140625
2023-03-06T01:08:14.287Z,75.138671875
2023-03-06T01:09:14.264Z,75.39453125
2023-03-06T01:10:15.248Z,75.4775390625
2023-03-06T01:11:14.119Z,75.5625
2023-03-06T01:12:14.158Z,75.6650390625
2023-03-06T01:13:16.587Z,75.9072265625
2023-03-06T01:14:14.249Z,75.9228515625
2023-03-06T01:15:14.266Z,75.7763671875
2023-03-06T01:16:14.316Z,75.603515625
2023-03-06T01:17:14.201Z,75.7216796875
2023-03-06T01:18:14.137Z,75.423828125
2023-03-06T01:19:14.749Z,75.5107421875
2023-03-06T01:20:14.492Z,75.45703125
2023-03-06T01:21:14.243Z,75.48828125
2023-03-06T01:22:14.223Z,75.5751953125
2023-03-06T01:23:14.146Z,75.4306640625
2023-03-06T01:24:16.554Z,75.466796875
2023-03-06T01:25:14.255Z,75.572265625
2023-03-06T01:26:14.218Z,75.7587890625
2023-03-06T01:27:14.816Z,75.7353515625
2023-03-06T01:28:14.265Z,75.7099609375
2023-03-06T01:29:14.205Z,75.88671875
2023-03-06T01:30:14.510Z,75.8525390625
2023-03-06T01:31:14.476Z,75.609375
2023-03-06T01:32:14.526Z,75.5517578125
2023-03-06T01:33:14.276Z,75.658203125
2023-03-06T01:34:14.126Z,75.8232421875
2023-03-06T01:35:19.054Z,75.7705078125
2023-03-06T01:36:14.215Z,75.86328125
2023-03-06T01:37:14.201Z,75.6650390625
2023-03-06T01:38:14.274Z,75.6650390625
2023-03-06T01:39:14.260Z,75.5986328125
2023-03-06T01:40:14.506Z,75.71484375
2023-03-06T01:41:14.114Z,75.7421875
2023-03-06T01:42:14.160Z,75.5654296875
2023-03-06T01:43:14.330Z,75.7841796875
2023-03-06T01:44:14.220Z,75.5439453125
2023-03-06T01:45:14.504Z,75.7861328125
2023-03-06T01:46:16.583Z,75.5673828125
2023-03-06T01:47:14.514Z,75.59375
2023-03-06T01:48:14.231Z,75.431640625
2023-03-06T01:49:14.189Z,75.3828125
2023-03-06T01:50:14.499Z,75.701171875
2023-03-06T01:51:14.254Z,75.9697265625
2023-03-06T01:52:14.241Z,75.5732421875
2023-03-06T01:53:14.259Z,75.658203125
2023-03-06T01:54:14.197Z,75.5341796875
2023-03-06T01:55:14.508Z,75.796875
2023-03-06T01:56:14.286Z,75.7548828125
2023-03-06T01:57:16.613Z,75.603515625
2023-03-06T01:58:14.188Z,75.390625
2023-03-06T01:59:14.173Z,75.4951171875
2023-03-06T02:00:14.521Z,75.7431640625
2023-03-06T02:01:14.294Z,75.783203125
2023-03-06T02:02:14.518Z,75.96875
2023-03-06T02:03:14.156Z,75.9892578125
2023-03-06T02:04:14.150Z,76.0771484375
2023-03-06T02:05:14.517Z,76.0537109375
2023-03-06T02:06:14.255Z,76.095703125
2023-03-06T02:07:14.216Z,76.216796875
2023-03-06T02:08:16.551Z,76.0546875
2023-03-06T02:09:14.195Z,76.0693359375
2023-03-06T02:10:14.501Z,76.1572265625
2023-03-06T02:11:14.225Z,76.0947265625
2023-03-06T02:12:14.297Z,76.05859375
2023-03-06T02:13:14.182Z,76.1826171875
2023-03-06T02:14:14.279Z,76.017578125
2023-03-06T02:15:14.279Z,75.89453125
2023-03-06T02:16:14.249Z,76.03125
2023-03-06T02:17:14.547Z,76.2373046875
2023-03-06T02:18:14.168Z,76.7705078125
2023-03-06T02:19:16.495Z,76.7998046875
2023-03-06T02:20:14.226Z,76.462890625
2023-03-06T02:21:14.516Z,76.396484375
2023-03-06T02:22:14.284Z,76.275390625
2023-03-06T02:23:14.232Z,76.208984375
2023-03-06T02:24:14.292Z,75.9580078125
2023-03-06T02:25:14.177Z,76.224609375
2023-03-06T02:26:14.502Z,76.3662109375
2023-03-06T02:27:14.207Z,76.841796875
2023-03-06T02:28:14.217Z,77.8408203125
2023-03-06T02:29:14.190Z,78.1943359375
2023-03-06T02:30:16.538Z,77.8203125
2023-03-06T02:31:14.688Z,77.9931640625
2023-03-06T02:32:14.243Z,77.986328125
2023-03-06T02:33:14.266Z,78.173828125
2023-03-06T02:34:14.255Z,77.880859375
2023-03-06T02:35:14.261Z,78.115234375
2023-03-06T02:36:14.270Z,78.3857421875
2023-03-06T02:37:14.513Z,78.1357421875
2023-03-06T02:38:14.184Z,77.96484375
2023-03-06T02:39:14.190Z,77.8359375
2023-03-06T02:40:14.156Z,77.740234375
2023-03-06T02:41:16.688Z,77.6201171875
2023-03-06T02:42:14.515Z,77.6298828125
2023-03-06T02:43:14.224Z,77.4365234375
2023-03-06T02:44:14.294Z,77.353515625
2023-03-06T02:45:14.220Z,77.25390625
2023-03-06T02:46:14.362Z,77.4638671875
2023-03-06T02:47:14.206Z,77.470703125
2023-03-06T02:48:14.529Z,78.095703125
2023-03-06T02:49:14.172Z,77.5009765625
2023-03-06T02:50:14.233Z,77.5634765625
2023-03-06T02:51:14.276Z,77.6513671875
2023-03-06T02:52:16.492Z,77.978515625
2023-03-06T02:53:14.511Z,78.4580078125
2023-03-06T02:54:14.255Z,78.90234375
2023-03-06T02:55:14.156Z,78.6357421875
2023-03-06T02:56:14.154Z,78.6484375
2023-03-06T02:57:14.266Z,78.654296875
2023-03-06T02:58:14.515Z,78.8046875
2023-03-06T02:59:14.227Z,78.5986328125
2023-03-06T03:00:14.186Z,78.7900390625
2023-03-06T03:01:14.221Z,79.1103515625
2023-03-06T03:02:14.501Z,79.099609375
2023-03-06T03:03:18.969Z,79.3447265625
2023-03-06T03:04:14.419Z,79.3291015625
2023-03-06T03:05:14.157Z,79.2109375
2023-03-06T03:06:14.146Z,79.1357421875
2023-03-06T03:07:14.157Z,79.0830078125
2023-03-06T03:08:14.503Z,79.0341796875
2023-03-06T03:09:14.270Z,78.7890625
2023-03-06T03:10:14.187Z,78.916015625
2023-03-06T03:11:14.137Z,79.126953125
2023-03-06T03:12:14.223Z,78.9931640625
2023-03-06T03:13:14.504Z,79.2265625
2023-03-06T03:14:16.593Z,79.291015625
2023-03-06T03:15:14.171Z,79.3095703125
2023-03-06T03:16:14.240Z,79.390625
2023-03-06T03:17:14.510Z,79.6025390625
2023-03-06T03:18:14.497Z,79.7890625
2023-03-06T03:19:14.278Z,79.8740234375
2023-03-06T03:20:14.136Z,79.9716796875
2023-03-06T03:21:14.181Z,79.8662109375
2023-03-06T03:22:14.186Z,79.9560546875
2023-03-06T03:23:14.507Z,79.7431640625
2023-03-06T03:24:14.248Z,79.7255859375
2023-03-06T03:25:16.599Z,79.943359375
2023-03-06T03:26:14.283Z,79.7646484375
2023-03-06T03:27:14.188Z,79.732421875
2023-03-06T03:28:14.501Z,79.685546875
2023-03-06T03:29:14.261Z,79.435546875
2023-03-06T03:30:14.247Z,79.5
2023-03-06T03:31:14.272Z,79.4150390625
2023-03-06T03:32:14.584Z,79.33203125
2023-03-06T03:33:14.530Z,79.212890625
2023-03-06T03:34:14.237Z,79
2023-03-06T03:35:14.271Z,78.7021484375
2023-03-06T03:36:16.561Z,78.5546875
2023-03-06T03:37:14.228Z,78.4306640625
2023-03-06T03:38:14.504Z,78.45703125
2023-03-06T03:39:14.280Z,78.5390625
2023-03-06T03:40:15.262Z,78.4345703125
2023-03-06T03:41:14.208Z,78.275390625
2023-03-06T03:42:14.297Z,78.025390625
2023-03-06T03:43:14.508Z,78.234375
2023-03-06T03:44:14.156Z,77.916015625
2023-03-06T03:45:14.236Z,77.9658203125
2023-03-06T03:46:14.313Z,78.0205078125
2023-03-06T03:47:18.969Z,77.9990234375
2023-03-06T03:48:14.504Z,78.033203125
2023-03-06T03:49:14.231Z,77.9599609375
2023-03-06T03:50:14.270Z,77.9169921875
2023-03-06T03:51:14.144Z,77.7958984375
2023-03-06T03:52:14.232Z,77.8134765625
2023-03-06T03:53:14.517Z,77.8994140625
2023-03-06T03:54:14.279Z,77.888671875
2023-03-06T03:55:14.159Z,77.7958984375
2023-03-06T03:56:14.263Z,77.9560546875
2023-03-06T03:57:14.224Z,77.9287109375
2023-03-06T03:58:18.910Z,78.197265625
2023-03-06T03:59:14.228Z,78.3984375
2023-03-06T04:00:14.299Z,78.302734375
2023-03-06T04:01:14.155Z,78.2587890625
2023-03-06T04:02:14.571Z,78.3740234375
2023-03-06T04:03:14.502Z,78.4755859375
2023-03-06T04:04:14.178Z,78.3798828125
2023-03-06T04:05:14.283Z,78.474609375
2023-03-06T04:06:14.178Z,78.611328125
2023-03-06T04:07:14.170Z,78.3408203125
2023-03-06T04:08:14.514Z,78.3740234375
2023-03-06T04:09:16.575Z,78.376953125
2023-03-06T04:10:15.252Z,78.490234375
2023-03-06T04:11:14.200Z,78.701171875
2023-03-06T04:12:14.193Z,78.603515625
2023-03-06T04:13:14.164Z,78.5888671875
2023-03-06T04:14:14.506Z,78.671875
2023-03-06T04:15:14.183Z,78.744140625
2023-03-06T04:16:14.236Z,78.9150390625
2023-03-06T04:17:14.269Z,78.9716796875
2023-03-06T04:18:14.501Z,79.0458984375
2023-03-06T04:19:14.509Z,79.17578125
2023-03-06T04:20:16.573Z,79.08203125
2023-03-06T04:21:14.197Z,79.009765625
2023-03-06T04:22:14.171Z,78.923828125
2023-03-06T04:23:14.281Z,78.9970703125
2023-03-06T04:24:14.500Z,79.0322265625
2023-03-06T04:25:14.247Z,78.921875
2023-03-06T04:26:14.242Z,78.962890625
2023-03-06T04:27:14.258Z,79.08203125
2023-03-06T04:28:14.798Z,79.1494140625
2023-03-06T04:29:14.516Z,79.0849609375
2023-03-06T04:30:15.152Z,79.06640625
2023-03-06T04:31:16.564Z,78.908203125
2023-03-06T04:32:14.304Z,78.9384765625
2023-03-06T04:33:14.505Z,79.123046875
2023-03-06T04:34:14.507Z,79.05859375
2023-03-06T04:35:14.222Z,79.1064453125
2023-03-06T04:36:14.287Z,79.056640625
2023-03-06T04:37:14.184Z,78.9228515625
2023-03-06T04:38:14.242Z,79.0400390625
2023-03-06T04:39:14.646Z,79.2548828125
2023-03-06T04:40:14.176Z,79.267578125
2023-03-06T04:41:14.113Z,79.5830078125
2023-03-06T04:42:16.495Z,79.595703125
2023-03-06T04:43:14.301Z,79.7294921875
2023-03-06T04:44:14.502Z,79.8486328125
2023-03-06T04:45:14.210Z,79.9287109375
2023-03-06T04:46:14.163Z,79.919921875
2023-03-06T04:47:14.294Z,79.9775390625
2023-03-06T04:48:14.523Z,79.9462890625
2023-03-06T04:49:14.509Z,80.048828125
2023-03-06T04:50:14.199Z,80.0302734375
2023-03-06T04:51:14.264Z,80.044921875
2023-03-06T04:52:14.258Z,80.099609375
2023-03-06T04:53:16.602Z,80.083984375
2023-03-06T04:54:14.510Z,80.2109375
2023-03-06T04:55:14.272Z,80.3779296875
2023-03-06T04:56:14.186Z,80.6181640625
2023-03-06T04:57:14.331Z,80.908203125
2023-03-06T04:58:14.229Z,81.169921875
2023-03-06T04:59:14.509Z,81.291015625
2023-03-06T05:00:14.228Z,81.654296875
2023-03-06T05:01:14.236Z,81.533203125
2023-03-06T05:02:14.271Z,81.70703125
2023-03-06T05:03:14.504Z,81.8466796875
2023-03-06T05:04:18.920Z,81.9404296875
2023-03-06T05:05:14.157Z,82.3896484375
2023-03-06T05:06:14.155Z,82.71875
2023-03-06T05:07:14.141Z,83.2529296875
2023-03-06T05:08:14.274Z,83.0830078125
2023-03-06T05:09:14.507Z,83.2734375
2023-03-06T05:10:15.085Z,83.708984375
2023-03-06T05:11:14.118Z,83.5830078125
2023-03-06T05:12:14.277Z,83.60546875
2023-03-06T05:13:14.274Z,83.892578125
2023-03-06T05:14:14.284Z,84.2099609375
2023-03-06T05:15:16.576Z,84.447265625
2023-03-06T05:16:14.339Z,84.419921875
2023-03-06T05:17:14.787Z,84.2822265625
2023-03-06T05:18:14.512Z,84.171875
2023-03-06T05:19:14.294Z,84.0830078125
2023-03-06T05:20:14.499Z,84.091796875
2023-03-06T05:21:14.148Z,84.02734375
2023-03-06T05:22:14.166Z,83.822265625
2023-03-06T05:23:14.275Z,83.8349609375
2023-03-06T05:24:14.145Z,83.7255859375
2023-03-06T05:25:14.502Z,83.4755859375
2023-03-06T05:26:16.594Z,83.9609375
2023-03-06T05:27:16.824Z,83.720703125
2023-03-06T05:28:14.228Z,83.806640625
2023-03-06T05:29:14.212Z,83.87109375
2023-03-06T05:30:14.214Z,84.0009765625
2023-03-06T05:31:14.669Z,83.9169921875
2023-03-06T05:32:14.464Z,84.00390625
2023-03-06T05:33:14.501Z,84.033203125
2023-03-06T05:34:14.249Z,83.708984375
2023-03-06T05:35:14.158Z,83.62109375
2023-03-06T05:36:14.285Z,83.591796875
2023-03-06T05:37:16.594Z,83.4853515625
2023-03-06T05:38:14.829Z,83.4990234375
2023-03-06T05:39:14.168Z,83.654296875
2023-03-06T05:40:14.389Z,83.6123046875
2023-03-06T05:41:14.210Z,83.5556640625
2023-03-06T05:42:14.515Z,83.4912109375
2023-03-06T05:43:14.181Z,83.56640625
2023-03-06T05:44:14.253Z,83.689453125
2023-03-06T05:45:14.319Z,83.595703125
2023-03-06T05:46:14.265Z,83.3740234375
2023-03-06T05:47:14.173Z,83.44921875
2023-03-06T05:48:17.038Z,83.638671875
2023-03-06T05:49:14.265Z,83.912109375
2023-03-06T05:50:14.207Z,84.322265625
2023-03-06T05:51:14.151Z,84.4375
2023-03-06T05:52:14.514Z,84.5009765625
2023-03-06T05:53:14.245Z,84.42578125
2023-03-06T05:54:14.280Z,84.4697265625
2023-03-06T05:55:14.293Z,84.3427734375
2023-03-06T05:56:14.291Z,84.220703125
2023-03-06T05:57:14.507Z,84.279296875
2023-03-06T05:58:14.253Z,84.1728515625
2023-03-06T05:59:16.573Z,84.0458984375
2023-03-06T06:00:14.220Z,83.86328125
2023-03-06T06:01:14.292Z,83.9658203125
2023-03-06T06:02:14.546Z,83.912109375
2023-03-06T06:03:14.510Z,83.67578125
2023-03-06T06:04:14.293Z,83.5498046875
2023-03-06T06:05:14.207Z,83.703125
2023-03-06T06:06:14.299Z,83.7783203125
2023-03-06T06:07:14.511Z,83.5703125
2023-03-06T06:08:14.259Z,83.3212890625
2023-03-06T06:09:14.244Z,83.2724609375
2023-03-06T06:10:19.945Z,83.291015625
2023-03-06T06:11:14.139Z,83.4384765625
2023-03-06T06:12:14.533Z,83.22265625
2023-03-06T06:13:14.233Z,83.26171875
2023-03-06T06:14:14.282Z,83.2724609375
2023-03-06T06:15:14.252Z,83.458984375
2023-03-06T06:16:14.320Z,83.3544921875
2023-03-06T06:17:14.284Z,83.369140625
2023-03-06T06:18:14.507Z,83.3427734375
2023-03-06T06:19:14.184Z,83.1044921875
2023-03-06T06:20:14.220Z,83.005859375
2023-03-06T06:21:16.538Z,82.9306640625
2023-03-06T06:22:14.280Z,82.84765625
2023-03-06T06:23:14.501Z,82.728515625
2023-03-06T06:24:14.134Z,82.84765625
2023-03-06T06:25:14.228Z,82.763671875
2023-03-06T06:26:14.192Z,82.6884765625
2023-03-06T06:27:14.206Z,82.6640625
2023-03-06T06:28:14.247Z,82.5576171875
2023-03-06T06:29:14.504Z,82.3369140625
2023-03-06T06:30:14.160Z,82.1875
2023-03-06T06:31:14.255Z,82.1015625
2023-03-06T06:32:16.619Z,82.06640625
2023-03-06T06:33:14.511Z,82.0869140625
2023-03-06T06:34:14.171Z,82.14453125
2023-03-06T06:35:14.291Z,82.3779296875
2023-03-06T06:36:14.265Z,82.4697265625
2023-03-06T06:37:14.284Z,82.4140625
2023-03-06T06:38:14.279Z,82.39453125
2023-03-06T06:39:14.498Z,82.6259765625
2023-03-06T06:40:15.257Z,82.9765625
2023-03-06T06:41:42.633Z,82.9892578125
2023-03-06T06:42:29.402Z,82.9892578125
2023-03-06T06:43:16.482Z,83.0107421875
2023-03-06T06:44:14.255Z,83.2529296875
2023-03-06T06:45:14.495Z,83.0419921875
2023-03-06T06:46:49.640Z,82.8564453125
2023-03-06T06:47:24.151Z,82.724609375
2023-03-06T06:48:16.597Z,82.8486328125
2023-03-06T06:49:14.244Z,82.7626953125
2023-03-06T06:50:14.503Z,82.77734375
2023-03-06T06:51:14.186Z,82.69921875
2023-03-06T06:52:14.293Z,82.5126953125
2023-03-06T06:53:14.260Z,82.4609375
2023-03-06T06:54:16.596Z,82.4521484375
2023-03-06T06:55:14.524Z,82.248046875
2023-03-06T06:56:14.158Z,82.28125
2023-03-06T06:57:14.286Z,82.37109375
2023-03-06T06:58:14.338Z,82.1796875
2023-03-06T06:59:17.227Z,82.1357421875
2023-03-06T07:00:14.512Z,82.1298828125
2023-03-06T07:01:14.332Z,82.3134765625
2023-03-06T07:02:14.150Z,82.3251953125
2023-03-06T07:03:14.405Z,82.384765625
2023-03-06T07:04:14.304Z,82.2158203125
2023-03-06T07:05:20.870Z,82.04296875
2023-03-06T07:06:14.282Z,81.890625
2023-03-06T07:07:14.292Z,82.052734375
2023-03-06T07:08:14.266Z,82.1787109375
2023-03-06T07:09:14.272Z,81.994140625
2023-03-06T07:10:14.762Z,81.58984375
2023-03-06T07:11:14.129Z,81.5302734375
2023-03-06T07:12:14.282Z,81.29296875
2023-03-06T07:13:14.296Z,80.90234375
2023-03-06T07:14:14.168Z,80.4287109375
2023-03-06T07:15:14.191Z,80.1142578125
2023-03-06T07:16:19.070Z,80.1064453125
2023-03-06T07:17:14.812Z,79.9609375
2023-03-06T07:18:14.519Z,79.7587890625
2023-03-06T07:19:14.232Z,79.177734375
2023-03-06T07:20:14.281Z,78.7802734375
2023-03-06T07:21:14.516Z,78.85546875
2023-03-06T07:22:14.184Z,78.4384765625
2023-03-06T07:23:14.208Z,77.9638671875
2023-03-06T07:24:14.264Z,78.2099609375
2023-03-06T07:25:14.280Z,78.2119140625
2023-03-06T07:26:14.789Z,77.857421875
2023-03-06T07:27:16.474Z,77.53515625
2023-03-06T07:28:14.229Z,77.400390625
2023-03-06T07:29:14.133Z,76.857421875
2023-03-06T07:30:14.295Z,76.3681640625
2023-03-06T07:31:14.731Z,76.29296875
2023-03-06T07:32:14.355Z,76.150390625
2023-03-06T07:33:14.299Z,76.119140625
2023-03-06T07:34:14.540Z,75.904296875
2023-03-06T07:35:20.081Z,75.8837890625
2023-03-06T07:36:14.291Z,75.7392578125
2023-03-06T07:37:14.292Z,75.498046875
2023-03-06T07:38:16.625Z,75.205078125
2023-03-06T07:39:14.227Z,74.75
2023-03-06T07:40:15.147Z,74.7861328125
2023-03-06T07:41:14.203Z,74.3857421875
2023-03-06T07:42:14.130Z,74.1689453125
2023-03-06T07:43:19.393Z,74.09765625
2023-03-06T07:44:14.162Z,73.728515625
2023-03-06T07:45:14.168Z,73.3544921875
2023-03-06T07:46:14.369Z,72.7216796875
2023-03-06T07:47:14.286Z,72.6259765625
2023-03-06T07:48:14.299Z,72.5234375
2023-03-06T07:49:16.542Z,72.3359375
2023-03-06T07:50:14.251Z,72.0009765625
2023-03-06T07:51:14.292Z,72.03515625
2023-03-06T07:52:14.508Z,71.5712890625
2023-03-06T07:53:14.267Z,71.06640625
2023-03-06T07:54:14.185Z,70.91015625
2023-03-06T07:55:14.228Z,70.5751953125
2023-03-06T07:56:14.215Z,70.3779296875
2023-03-06T07:57:14.531Z,70.1240234375
2023-03-06T07:58:14.170Z,69.982421875
2023-03-06T07:59:14.181Z,70.23046875
2023-03-06T08:00:16.496Z,70.1669921875
2023-03-06T08:01:14.233Z,70.029296875
2023-03-06T08:02:14.249Z,69.712890625
2023-03-06T08:03:14.533Z,69.615234375
2023-03-06T08:04:14.604Z,69.7314453125
2023-03-06T08:05:14.226Z,69.734375
2023-03-06T08:06:14.314Z,69.6376953125
2023-03-06T08:07:14.218Z,69.712890625
2023-03-06T08:08:14.512Z,69.869140625
2023-03-06T08:09:14.244Z,70.1904296875
2023-03-06T08:10:15.263Z,70.462890625
2023-03-06T08:11:16.690Z,70.4697265625
2023-03-06T08:12:15.775Z,70.5205078125
2023-03-06T08:13:14.311Z,70.4306640625
2023-03-06T08:14:14.258Z,70.1806640625
2023-03-06T08:15:14.268Z,69.751953125
2023-03-06T08:16:14.239Z,69.38671875
2023-03-06T08:17:14.158Z,69.6259765625
2023-03-06T08:18:14.192Z,69.3916015625
2023-03-06T08:19:14.521Z,70.080078125
2023-03-06T08:20:14.243Z,71.78515625
2023-03-06T08:21:14.271Z,73.1923828125
2023-03-06T08:22:16.449Z,73.1796875
2023-03-06T08:23:14.261Z,74.4130859375
2023-03-06T08:24:14.516Z,74.123046875
2023-03-06T08:25:14.300Z,73.8623046875
2023-03-06T08:26:14.149Z,73.013671875
2023-03-06T08:27:14.268Z,72.556640625
2023-03-06T08:28:14.290Z,71.91796875
2023-03-06T08:29:14.281Z,71.07421875
2023-03-06T08:30:14.707Z,70.3291015625
2023-03-06T08:31:14.321Z,69.677734375
2023-03-06T08:32:14.183Z,69.0947265625
2023-03-06T08:33:16.532Z,69.1201171875
2023-03-06T08:34:14.280Z,68.3271484375
2023-03-06T08:35:14.189Z,68.51171875
2023-03-06T08:36:14.235Z,68.9892578125
2023-03-06T08:37:14.227Z,68.5263671875
2023-03-06T08:38:14.266Z,68.21875
2023-03-06T08:39:14.287Z,68.0703125
2023-03-06T08:40:15.257Z,67.9697265625
2023-03-06T08:41:14.214Z,67.5810546875
2023-03-06T08:42:14.121Z,67.07421875
2023-03-06T08:43:14.443Z,66.365234375
2023-03-06T08:44:16.520Z,66.111328125
2023-03-06T08:45:14.556Z,66.6943359375
2023-03-06T08:46:14.281Z,66.9638671875
2023-03-06T08:47:14.241Z,67.189453125
2023-03-06T08:48:14.267Z,67.1015625
2023-03-06T08:49:14.516Z,67.3447265625
2023-03-06T08:50:14.292Z,67.005859375
2023-03-06T08:51:14.513Z,66.46484375
2023-03-06T08:52:14.277Z,65.7080078125
2023-03-06T08:53:14.205Z,66.4384765625
2023-03-06T08:54:14.262Z,66.697265625
2023-03-06T08:55:16.538Z,66.259765625
2023-03-06T08:56:14.239Z,65.88671875
2023-03-06T08:57:14.204Z,65.744140625
2023-03-06T08:58:14.241Z,66.478515625
2023-03-06T08:59:14.293Z,67.3681640625
2023-03-06T09:00:14.334Z,67.216796875
2023-03-06T09:01:14.524Z,67.1376953125
2023-03-06T09:02:14.302Z,67.16015625
2023-03-06T09:03:14.268Z,67.5107421875
2023-03-06T09:04:14.280Z,67.3359375
2023-03-06T09:05:14.521Z,67
2023-03-06T09:06:18.985Z,66.71484375
2023-03-06T09:07:14.224Z,66.45703125
2023-03-06T09:08:14.267Z,66.583984375
2023-03-06T09:09:14.184Z,66.904296875
2023-03-06T09:10:14.268Z,66.919921875
2023-03-06T09:11:14.516Z,67.03125
2023-03-06T09:12:14.211Z,67.56640625
2023-03-06T09:13:14.280Z,67.744140625
2023-03-06T09:14:14.175Z,67.09765625
2023-03-06T09:15:14.206Z,66.779296875
2023-03-06T09:16:14.638Z,66.71484375
2023-03-06T09:17:16.612Z,65.7158203125
2023-03-06T09:18:14.263Z,65.0322265625
2023-03-06T09:19:14.252Z,64.0771484375
2023-03-06T09:20:14.510Z,63.193359375
2023-03-06T09:21:14.506Z,62.640625
2023-03-06T09:22:14.154Z,61.59765625
2023-03-06T09:23:14.267Z,61.751953125
2023-03-06T09:24:14.266Z,61.02734375
2023-03-06T09:25:14.251Z,60.666015625
2023-03-06T09:26:14.527Z,60.7529296875
2023-03-06T09:27:14.155Z,61.1337890625
2023-03-06T09:28:16.568Z,61.982421875
2023-03-06T09:29:14.296Z,62.7333984375
2023-03-06T09:30:14.231Z,62.7529296875
2023-03-06T09:31:14.351Z,63.7109375
2023-03-06T09:32:14.374Z,64.474609375
2023-03-06T09:33:14.175Z,64.4287109375
2023-03-06T09:34:14.223Z,64.9990234375
2023-03-06T09:35:14.287Z,65.568359375
2023-03-06T09:36:14.272Z,65.9375
2023-03-06T09:37:15.773Z,66.5810546875
2023-03-06T09:38:14.164Z,66.79296875
2023-03-06T09:39:16.609Z,67.7119140625
2023-03-06T09:40:15.263Z,68.5185546875
2023-03-06T09:41:14.145Z,68.5654296875
2023-03-06T09:42:14.204Z,68.7041015625
2023-03-06T09:43:14.254Z,68.7607421875
2023-03-06T09:44:14.231Z,67.767578125
2023-03-06T09:45:14.262Z,67.130859375
2023-03-06T09:46:14.622Z,66.33203125
2023-03-06T09:47:14.167Z,65.685546875
2023-03-06T09:48:14.291Z,65.166015625
2023-03-06T09:49:14.173Z,65.390625
2023-03-06T09:50:16.561Z,64.7333984375
2023-03-06T09:51:14.190Z,64.8369140625
2023-03-06T09:52:14.243Z,65.2646484375
2023-03-06T09:53:14.276Z,65.5859375
2023-03-06T09:54:14.246Z,65.0791015625
2023-03-06T09:55:14.275Z,64.908203125
2023-03-06T09:56:14.265Z,64.853515625
2023-03-06T09:57:14.267Z,64.66015625
2023-03-06T09:58:14.261Z,64.1982421875
2023-03-06T09:59:14.171Z,63.7236328125
2023-03-06T10:00:14.283Z,63.447265625
2023-03-06T10:01:16.612Z,62.90625
2023-03-06T10:02:14.430Z,62.837890625
2023-03-06T10:03:14.388Z,62.8818359375
2023-03-06T10:04:14.285Z,62.525390625
2023-03-06T10:05:14.328Z,62.447265625
2023-03-06T10:06:14.514Z,62.0234375
2023-03-06T10:07:14.226Z,62.3349609375
2023-03-06T10:08:14.293Z,62.123046875
2023-03-06T10:09:14.251Z,62.17578125
2023-03-06T10:10:14.320Z,62.5224609375
2023-03-06T10:11:14.563Z,62.578125
2023-03-06T10:12:16.466Z,62.7978515625
2023-03-06T10:13:14.221Z,63.462890625
2023-03-06T10:14:14.250Z,65.09765625
2023-03-06T10:15:14.251Z,65.3916015625
2023-03-06T10:16:14.539Z,65.9765625
2023-03-06T10:17:14.271Z,65.861328125
2023-03-06T10:18:14.281Z,67.0380859375
2023-03-06T10:19:14.275Z,69.5068359375
2023-03-06T10:20:14.298Z,71.3388671875
2023-03-06T10:21:19.278Z,74.16015625
2023-03-06T10:22:14.259Z,74.9814453125
2023-03-06T10:23:16.572Z,75.2412109375
2023-03-06T10:31:28.968Z,73.56640625
2023-03-06T10:32:34.244Z,72.400390625
2023-03-06T10:33:28.393Z,70.6826171875
2023-03-06T10:34:29.081Z,69.7392578125
2023-03-06T10:35:30.431Z,68.4755859375
2023-03-06T10:36:30.760Z,67.1474609375
2023-03-06T10:37:28.405Z,66.6103515625